sensor_id;sensor_type;location;lat;lon;timestamp;P1;durP1;ratioP1;P2;durP2;ratioP2
41101;SDS011;26845;50.190;19.178;2022-09-16T07:47:16;11.00;;;6.85;;
41101;SDS011;26845;50.190;19.178;2022-09-16T07:49:41;12.03;;;7.62;;
41101;SDS011;26845;50.190;19.178;2022-09-16T07:52:07;10.63;;;7.12;;
41101;SDS011;26845;50.190;19.178;2022-09-16T07:54:33;8.45;;;7.17;;
41101;SDS011;26845;50.190;19.178;2022-09-16T07:56:59;9.23;;;6.90;;
41101;SDS011;26845;50.190;19.178;2022-09-16T07:59:25;8.18;;;6.67;;
41101;SDS011;26845;50.190;19.178;2022-09-16T08:01:51;11.57;;;6.25;;
41101;SDS011;26845;50.190;19.178;2022-09-16T08:04:17;7.70;;;5.95;;
41101;SDS011;26845;50.190;19.178;2022-09-16T08:06:44;7.58;;;6.08;;
41101;SDS011;26845;50.190;19.178;2022-09-16T08:09:10;8.15;;;6.00;;
41101;SDS011;26845;50.190;19.178;2022-09-16T08:11:36;8.38;;;6.65;;
41101;SDS011;26845;50.190;19.178;2022-09-16T08:14:01;8.93;;;6.58;;
41101;SDS011;26845;50.190;19.178;2022-09-16T08:16:28;5.80;;;5.03;;
41101;SDS011;26845;50.190;19.178;2022-09-16T08:18:54;10.40;;;5.83;;
41101;SDS011;26845;50.190;19.178;2022-09-16T08:21:23;9.53;;;5.97;;
41101;SDS011;26845;50.190;19.178;2022-09-16T08:23:52;8.83;;;5.70;;
41101;SDS011;26845;50.190;19.178;2022-09-16T08:26:22;7.03;;;5.70;;
41101;SDS011;26845;50.190;19.178;2022-09-16T08:28:54;10.05;;;5.85;;
41101;SDS011;26845;50.190;19.178;2022-09-16T08:31:28;10.08;;;4.75;;
41101;SDS011;26845;50.190;19.178;2022-09-16T08:33:57;7.92;;;4.97;;
41101;SDS011;26845;50.190;19.178;2022-09-16T08:36:28;6.67;;;4.53;;
41101;SDS011;26845;50.190;19.178;2022-09-16T08:39:02;8.83;;;4.95;;
41101;SDS011;26845;50.190;19.178;2022-09-16T08:47:14;6.53;;;3.77;;
41101;SDS011;26845;50.190;19.178;2022-09-16T08:49:43;5.00;;;3.75;;
41101;SDS011;26845;50.190;19.178;2022-09-16T08:52:45;6.08;;;3.55;;
41101;SDS011;26845;50.190;19.178;2022-09-16T08:54:58;7.03;;;3.75;;
41101;SDS011;26845;50.190;19.178;2022-09-16T08:57:37;4.37;;;3.05;;
41101;SDS011;26845;50.190;19.178;2022-09-16T09:00:12;7.47;;;2.92;;
41101;SDS011;26845;50.190;19.178;2022-09-16T09:08:29;5.95;;;2.95;;
41101;SDS011;26845;50.190;19.178;2022-09-16T09:11:33;6.85;;;2.52;;
41101;SDS011;26845;50.190;19.178;2022-09-16T09:17:04;4.78;;;2.50;;
41101;SDS011;26845;50.190;19.178;2022-09-16T09:39:31;3.67;;;2.83;;
41101;SDS011;26845;50.190;19.178;2022-09-16T09:42:13;5.50;;;2.98;;
41101;SDS011;26845;50.190;19.178;2022-09-16T09:50:50;3.65;;;3.02;;
41101;SDS011;26845;50.190;19.178;2022-09-16T09:53:25;5.28;;;2.40;;
41101;SDS011;26845;50.190;19.178;2022-09-16T09:55:59;4.50;;;2.47;;
41101;SDS011;26845;50.190;19.178;2022-09-16T10:01:30;7.12;;;3.30;;
41101;SDS011;26845;50.190;19.178;2022-09-16T10:03:56;7.37;;;4.53;;
41101;SDS011;26845;50.190;19.178;2022-09-16T10:06:25;6.33;;;4.40;;
41101;SDS011;26845;50.190;19.178;2022-09-16T10:08:58;7.55;;;2.55;;
41101;SDS011;26845;50.190;19.178;2022-09-16T10:11:26;2.33;;;2.08;;
41101;SDS011;26845;50.190;19.178;2022-09-16T10:13:56;4.10;;;3.17;;
41101;SDS011;26845;50.190;19.178;2022-09-16T10:16:26;10.65;;;6.47;;
41101;SDS011;26845;50.190;19.178;2022-09-16T10:19:15;11.88;;;6.22;;
41101;SDS011;26845;50.190;19.178;2022-09-16T10:21:52;9.50;;;5.10;;
41101;SDS011;26845;50.190;19.178;2022-09-16T10:30:16;4.90;;;4.42;;
41101;SDS011;26845;50.190;19.178;2022-09-16T10:35:35;6.95;;;5.17;;
41101;SDS011;26845;50.190;19.178;2022-09-16T10:38:13;7.72;;;4.85;;
41101;SDS011;26845;50.190;19.178;2022-09-16T10:40:37;5.55;;;5.05;;
41101;SDS011;26845;50.190;19.178;2022-09-16T10:43:06;6.08;;;5.25;;
41101;SDS011;26845;50.190;19.178;2022-09-16T10:45:43;6.40;;;5.80;;
41101;SDS011;26845;50.190;19.178;2022-09-16T10:48:14;7.53;;;5.08;;
41101;SDS011;26845;50.190;19.178;2022-09-16T10:50:56;8.90;;;5.65;;
41101;SDS011;26845;50.190;19.178;2022-09-16T10:53:33;7.62;;;5.87;;
41101;SDS011;26845;50.190;19.178;2022-09-16T10:56:05;4.58;;;3.92;;
41101;SDS011;26845;50.190;19.178;2022-09-16T10:58:44;7.33;;;5.90;;
41101;SDS011;26845;50.190;19.178;2022-09-16T11:01:16;4.92;;;4.42;;
41101;SDS011;26845;50.190;19.178;2022-09-16T11:03:50;7.00;;;4.58;;
41101;SDS011;26845;50.190;19.178;2022-09-16T11:06:53;5.05;;;3.95;;
41101;SDS011;26845;50.190;19.178;2022-09-16T11:09:51;11.10;;;4.50;;
41101;SDS011;26845;50.190;19.178;2022-09-16T11:17:45;5.33;;;4.45;;
41101;SDS011;26845;50.190;19.178;2022-09-16T11:23:29;6.30;;;4.00;;
41101;SDS011;26845;50.190;19.178;2022-09-16T11:40:56;3.30;;;1.85;;
41101;SDS011;26845;50.190;19.178;2022-09-16T11:43:34;1.70;;;1.60;;
41101;SDS011;26845;50.190;19.178;2022-09-16T11:46:40;1.98;;;1.72;;
41101;SDS011;26845;50.190;19.178;2022-09-16T11:49:51;3.10;;;1.45;;
41101;SDS011;26845;50.190;19.178;2022-09-16T11:52:36;4.28;;;1.72;;
41101;SDS011;26845;50.190;19.178;2022-09-16T11:55:17;3.52;;;1.60;;
41101;SDS011;26845;50.190;19.178;2022-09-16T12:00:51;1.70;;;1.60;;
41101;SDS011;26845;50.190;19.178;2022-09-16T12:06:01;2.72;;;1.55;;
41101;SDS011;26845;50.190;19.178;2022-09-16T12:11:36;3.30;;;1.50;;
41101;SDS011;26845;50.190;19.178;2022-09-16T12:14:07;3.37;;;1.72;;
41101;SDS011;26845;50.190;19.178;2022-09-16T12:16:38;2.50;;;2.10;;
41101;SDS011;26845;50.190;19.178;2022-09-16T12:19:32;2.10;;;1.60;;
41101;SDS011;26845;50.190;19.178;2022-09-16T12:22:07;5.10;;;2.15;;
41101;SDS011;26845;50.190;19.178;2022-09-16T12:25:01;3.58;;;1.72;;
41101;SDS011;26845;50.190;19.178;2022-09-16T12:27:57;2.83;;;1.60;;
41101;SDS011;26845;50.190;19.178;2022-09-16T12:30:48;2.45;;;1.60;;
41101;SDS011;26845;50.190;19.178;2022-09-16T12:33:28;2.80;;;1.60;;
41101;SDS011;26845;50.190;19.178;2022-09-16T12:36:08;4.00;;;1.92;;
41101;SDS011;26845;50.190;19.178;2022-09-16T12:38:33;2.00;;;1.80;;
41101;SDS011;26845;50.190;19.178;2022-09-16T12:41:06;4.90;;;2.00;;
41101;SDS011;26845;50.190;19.178;2022-09-16T12:49:45;2.10;;;1.90;;
41101;SDS011;26845;50.190;19.178;2022-09-16T13:01:17;4.00;;;2.60;;
41101;SDS011;26845;50.190;19.178;2022-09-16T13:04:08;2.67;;;1.90;;
41101;SDS011;26845;50.190;19.178;2022-09-16T13:06:50;4.60;;;2.17;;
41101;SDS011;26845;50.190;19.178;2022-09-16T13:09:23;5.87;;;2.37;;
41101;SDS011;26845;50.190;19.178;2022-09-16T13:11:58;2.50;;;2.02;;
41101;SDS011;26845;50.190;19.178;2022-09-16T13:14:28;2.87;;;1.90;;
41101;SDS011;26845;50.190;19.178;2022-09-16T13:16:59;3.40;;;2.50;;
41101;SDS011;26845;50.190;19.178;2022-09-16T13:19:36;2.75;;;2.22;;
41101;SDS011;26845;50.190;19.178;2022-09-16T13:22:18;4.05;;;2.17;;
41101;SDS011;26845;50.190;19.178;2022-09-16T13:33:18;3.65;;;1.77;;
41101;SDS011;26845;50.190;19.178;2022-09-16T13:35:41;2.72;;;1.55;;
41101;SDS011;26845;50.190;19.178;2022-09-16T13:40:55;2.02;;;1.57;;
41101;SDS011;26845;50.190;19.178;2022-09-16T13:43:35;3.50;;;2.08;;
41101;SDS011;26845;50.190;19.178;2022-09-16T13:46:12;3.12;;;2.00;;
41101;SDS011;26845;50.190;19.178;2022-09-16T13:48:55;2.22;;;2.02;;
41101;SDS011;26845;50.190;19.178;2022-09-16T13:51:37;3.62;;;1.70;;
41101;SDS011;26845;50.190;19.178;2022-09-16T13:54:21;4.03;;;2.20;;
41101;SDS011;26845;50.190;19.178;2022-09-16T14:06:02;6.78;;;2.60;;
41101;SDS011;26845;50.190;19.178;2022-09-16T14:14:50;4.70;;;3.43;;
41101;SDS011;26845;50.190;19.178;2022-09-16T14:17:23;3.58;;;2.70;;
41101;SDS011;26845;50.190;19.178;2022-09-16T14:19:57;8.88;;;2.35;;
41101;SDS011;26845;50.190;19.178;2022-09-16T14:22:25;5.53;;;2.40;;
41101;SDS011;26845;50.190;19.178;2022-09-16T14:24:52;7.40;;;3.15;;
41101;SDS011;26845;50.190;19.178;2022-09-16T14:30:14;8.38;;;4.80;;
41101;SDS011;26845;50.190;19.178;2022-09-16T14:32:42;6.92;;;4.35;;
41101;SDS011;26845;50.190;19.178;2022-09-16T14:35:15;5.25;;;3.17;;
41101;SDS011;26845;50.190;19.178;2022-09-16T14:37:48;3.17;;;2.20;;
41101;SDS011;26845;50.190;19.178;2022-09-16T14:40:20;5.62;;;2.98;;
41101;SDS011;26845;50.190;19.178;2022-09-16T14:42:52;5.83;;;3.25;;
41101;SDS011;26845;50.190;19.178;2022-09-16T14:45:24;3.95;;;2.90;;
41101;SDS011;26845;50.190;19.178;2022-09-16T14:47:54;2.92;;;2.40;;
41101;SDS011;26845;50.190;19.178;2022-09-16T14:50:25;5.30;;;2.50;;
41101;SDS011;26845;50.190;19.178;2022-09-16T14:52:58;3.98;;;2.40;;
41101;SDS011;26845;50.190;19.178;2022-09-16T14:55:27;2.20;;;1.90;;
41101;SDS011;26845;50.190;19.178;2022-09-16T14:57:56;3.13;;;1.80;;
41101;SDS011;26845;50.190;19.178;2022-09-16T15:00:24;4.62;;;2.27;;
41101;SDS011;26845;50.190;19.178;2022-09-16T15:03:23;2.52;;;2.10;;
41101;SDS011;26845;50.190;19.178;2022-09-16T15:06:06;6.87;;;2.35;;
41101;SDS011;26845;50.190;19.178;2022-09-16T15:08:53;3.95;;;2.55;;
41101;SDS011;26845;50.190;19.178;2022-09-16T15:11:31;4.65;;;3.00;;
41101;SDS011;26845;50.190;19.178;2022-09-16T15:13:59;2.72;;;2.20;;
41101;SDS011;26845;50.190;19.178;2022-09-16T15:16:25;3.47;;;2.58;;
41101;SDS011;26845;50.190;19.178;2022-09-16T15:19:00;2.72;;;2.30;;
41101;SDS011;26845;50.190;19.178;2022-09-16T15:21:29;6.28;;;2.27;;
41101;SDS011;26845;50.190;19.178;2022-09-16T15:23:59;3.30;;;2.67;;
41101;SDS011;26845;50.190;19.178;2022-09-16T15:26:29;2.00;;;1.90;;
41101;SDS011;26845;50.190;19.178;2022-09-16T15:31:51;2.87;;;2.42;;
41101;SDS011;26845;50.190;19.178;2022-09-16T15:44:54;4.05;;;2.60;;
41101;SDS011;26845;50.190;19.178;2022-09-16T15:47:24;3.42;;;1.90;;
41101;SDS011;26845;50.190;19.178;2022-09-16T15:52:51;4.90;;;2.33;;
41101;SDS011;26845;50.190;19.178;2022-09-16T15:58:41;2.85;;;1.67;;
41101;SDS011;26845;50.190;19.178;2022-09-16T16:01:02;1.70;;;1.60;;
41101;SDS011;26845;50.190;19.178;2022-09-16T16:03:35;5.10;;;1.75;;
41101;SDS011;26845;50.190;19.178;2022-09-16T16:06:12;6.30;;;2.12;;
41101;SDS011;26845;50.190;19.178;2022-09-16T16:11:15;3.92;;;2.20;;
41101;SDS011;26845;50.190;19.178;2022-09-16T16:13:39;2.42;;;2.08;;
41101;SDS011;26845;50.190;19.178;2022-09-16T16:16:05;3.92;;;2.00;;
41101;SDS011;26845;50.190;19.178;2022-09-16T16:18:35;2.62;;;2.05;;
41101;SDS011;26845;50.190;19.178;2022-09-16T16:21:05;2.87;;;1.80;;
41101;SDS011;26845;50.190;19.178;2022-09-16T16:23:33;4.75;;;1.70;;
41101;SDS011;26845;50.190;19.178;2022-09-16T16:26:01;2.60;;;1.80;;
41101;SDS011;26845;50.190;19.178;2022-09-16T16:28:29;3.10;;;2.22;;
41101;SDS011;26845;50.190;19.178;2022-09-16T16:31:11;3.00;;;1.75;;
41101;SDS011;26845;50.190;19.178;2022-09-16T16:33:40;3.35;;;2.50;;
41101;SDS011;26845;50.190;19.178;2022-09-16T16:36:08;3.45;;;1.90;;
41101;SDS011;26845;50.190;19.178;2022-09-16T16:38:35;7.28;;;1.57;;
41101;SDS011;26845;50.190;19.178;2022-09-16T16:41:05;3.20;;;1.80;;
41101;SDS011;26845;50.190;19.178;2022-09-16T16:43:33;2.30;;;1.77;;
41101;SDS011;26845;50.190;19.178;2022-09-16T16:46:01;3.08;;;2.02;;
41101;SDS011;26845;50.190;19.178;2022-09-16T16:48:26;2.65;;;1.90;;
41101;SDS011;26845;50.190;19.178;2022-09-16T16:50:58;8.80;;;2.92;;
41101;SDS011;26845;50.190;19.178;2022-09-16T16:53:29;3.95;;;1.90;;
41101;SDS011;26845;50.190;19.178;2022-09-16T16:56:06;4.17;;;2.12;;
41101;SDS011;26845;50.190;19.178;2022-09-16T16:58:33;2.75;;;1.87;;
41101;SDS011;26845;50.190;19.178;2022-09-16T17:01:07;3.02;;;2.33;;
41101;SDS011;26845;50.190;19.178;2022-09-16T17:03:39;4.17;;;2.37;;
41101;SDS011;26845;50.190;19.178;2022-09-16T17:06:06;5.67;;;2.83;;
41101;SDS011;26845;50.190;19.178;2022-09-16T17:08:34;6.22;;;2.87;;
41101;SDS011;26845;50.190;19.178;2022-09-16T17:11:13;4.22;;;3.20;;
41101;SDS011;26845;50.190;19.178;2022-09-16T17:13:42;5.10;;;2.77;;
41101;SDS011;26845;50.190;19.178;2022-09-16T17:16:11;8.05;;;3.05;;
41101;SDS011;26845;50.190;19.178;2022-09-16T17:18:40;3.27;;;2.98;;
41101;SDS011;26845;50.190;19.178;2022-09-16T17:21:26;3.75;;;3.02;;
41101;SDS011;26845;50.190;19.178;2022-09-16T17:23:43;7.55;;;4.55;;
41101;SDS011;26845;50.190;19.178;2022-09-16T17:26:09;10.95;;;4.53;;
41101;SDS011;26845;50.190;19.178;2022-09-16T17:28:37;7.42;;;3.70;;
41101;SDS011;26845;50.190;19.178;2022-09-16T17:31:16;6.95;;;3.62;;
41101;SDS011;26845;50.190;19.178;2022-09-16T17:33:42;9.25;;;3.80;;
41101;SDS011;26845;50.190;19.178;2022-09-16T17:36:09;5.45;;;2.83;;
41101;SDS011;26845;50.190;19.178;2022-09-16T17:38:36;5.75;;;3.20;;
41101;SDS011;26845;50.190;19.178;2022-09-16T17:41:03;6.55;;;3.72;;
41101;SDS011;26845;50.190;19.178;2022-09-16T17:43:35;6.00;;;3.75;;
41101;SDS011;26845;50.190;19.178;2022-09-16T17:46:03;5.20;;;3.80;;
41101;SDS011;26845;50.190;19.178;2022-09-16T17:48:31;5.35;;;3.80;;
41101;SDS011;26845;50.190;19.178;2022-09-16T17:51:00;5.40;;;3.62;;
41101;SDS011;26845;50.190;19.178;2022-09-16T17:53:26;5.97;;;2.62;;
41101;SDS011;26845;50.190;19.178;2022-09-16T17:55:52;7.03;;;3.27;;
41101;SDS011;26845;50.190;19.178;2022-09-16T17:58:32;6.97;;;3.00;;
41101;SDS011;26845;50.190;19.178;2022-09-16T18:01:02;6.05;;;3.62;;
41101;SDS011;26845;50.190;19.178;2022-09-16T18:03:38;10.63;;;3.87;;
41101;SDS011;26845;50.190;19.178;2022-09-16T18:06:07;9.33;;;3.70;;
41101;SDS011;26845;50.190;19.178;2022-09-16T18:08:36;7.83;;;3.37;;
41101;SDS011;26845;50.190;19.178;2022-09-16T18:11:02;11.60;;;3.20;;
41101;SDS011;26845;50.190;19.178;2022-09-16T18:13:29;6.05;;;3.17;;
41101;SDS011;26845;50.190;19.178;2022-09-16T18:16:00;7.15;;;3.77;;
41101;SDS011;26845;50.190;19.178;2022-09-16T18:18:31;8.25;;;3.72;;
41101;SDS011;26845;50.190;19.178;2022-09-16T18:20:58;7.25;;;3.85;;
41101;SDS011;26845;50.190;19.178;2022-09-16T18:23:24;10.10;;;4.05;;
41101;SDS011;26845;50.190;19.178;2022-09-16T18:25:50;10.93;;;4.42;;
41101;SDS011;26845;50.190;19.178;2022-09-16T18:28:15;6.17;;;3.92;;
41101;SDS011;26845;50.190;19.178;2022-09-16T18:30:41;10.10;;;3.90;;
41101;SDS011;26845;50.190;19.178;2022-09-16T18:33:08;5.37;;;2.80;;
41101;SDS011;26845;50.190;19.178;2022-09-16T18:35:37;6.05;;;3.30;;
41101;SDS011;26845;50.190;19.178;2022-09-16T18:38:05;5.47;;;2.60;;
41101;SDS011;26845;50.190;19.178;2022-09-16T18:43:00;7.65;;;3.65;;
41101;SDS011;26845;50.190;19.178;2022-09-16T18:45:26;5.10;;;3.80;;
41101;SDS011;26845;50.190;19.178;2022-09-16T18:47:52;7.90;;;5.03;;
41101;SDS011;26845;50.190;19.178;2022-09-16T18:50:18;5.87;;;3.67;;
41101;SDS011;26845;50.190;19.178;2022-09-16T18:52:48;7.08;;;4.47;;
41101;SDS011;26845;50.190;19.178;2022-09-16T18:55:14;8.03;;;4.35;;
41101;SDS011;26845;50.190;19.178;2022-09-16T18:57:41;8.58;;;3.30;;
41101;SDS011;26845;50.190;19.178;2022-09-16T19:00:09;5.67;;;3.33;;
41101;SDS011;26845;50.190;19.178;2022-09-16T19:02:36;8.38;;;4.20;;
41101;SDS011;26845;50.190;19.178;2022-09-16T19:05:02;12.33;;;5.37;;
41101;SDS011;26845;50.190;19.178;2022-09-16T19:07:28;8.78;;;5.45;;
41101;SDS011;26845;50.190;19.178;2022-09-16T19:09:54;11.93;;;5.05;;
41101;SDS011;26845;50.190;19.178;2022-09-16T19:12:20;12.68;;;6.42;;
41101;SDS011;26845;50.190;19.178;2022-09-16T19:14:45;11.48;;;5.87;;
41101;SDS011;26845;50.190;19.178;2022-09-16T19:17:11;11.22;;;6.00;;
41101;SDS011;26845;50.190;19.178;2022-09-16T19:19:36;9.60;;;5.33;;
41101;SDS011;26845;50.190;19.178;2022-09-16T19:22:02;9.65;;;5.15;;
41101;SDS011;26845;50.190;19.178;2022-09-16T19:24:29;9.70;;;5.55;;
41101;SDS011;26845;50.190;19.178;2022-09-16T19:26:55;9.00;;;5.80;;
41101;SDS011;26845;50.190;19.178;2022-09-16T19:29:21;12.53;;;6.22;;
41101;SDS011;26845;50.190;19.178;2022-09-16T19:31:48;10.30;;;6.35;;
41101;SDS011;26845;50.190;19.178;2022-09-16T19:34:16;15.38;;;6.30;;
41101;SDS011;26845;50.190;19.178;2022-09-16T19:36:43;10.00;;;5.67;;
41101;SDS011;26845;50.190;19.178;2022-09-16T19:39:11;12.75;;;6.47;;
41101;SDS011;26845;50.190;19.178;2022-09-16T19:41:38;10.53;;;5.25;;
41101;SDS011;26845;50.190;19.178;2022-09-16T19:44:06;12.35;;;6.40;;
41101;SDS011;26845;50.190;19.178;2022-09-16T19:46:36;10.85;;;5.95;;
41101;SDS011;26845;50.190;19.178;2022-09-16T19:49:03;13.28;;;5.50;;
41101;SDS011;26845;50.190;19.178;2022-09-16T19:51:30;8.00;;;5.03;;
41101;SDS011;26845;50.190;19.178;2022-09-16T19:53:57;8.90;;;5.30;;
41101;SDS011;26845;50.190;19.178;2022-09-16T19:56:26;9.23;;;5.80;;
41101;SDS011;26845;50.190;19.178;2022-09-16T19:58:55;11.20;;;6.70;;
41101;SDS011;26845;50.190;19.178;2022-09-16T20:01:28;10.23;;;6.25;;
41101;SDS011;26845;50.190;19.178;2022-09-16T20:03:53;10.38;;;4.78;;
41101;SDS011;26845;50.190;19.178;2022-09-16T20:06:21;14.87;;;5.62;;
41101;SDS011;26845;50.190;19.178;2022-09-16T20:08:56;11.80;;;5.87;;
41101;SDS011;26845;50.190;19.178;2022-09-16T20:11:25;9.53;;;5.78;;
41101;SDS011;26845;50.190;19.178;2022-09-16T20:13:56;10.43;;;5.95;;
41101;SDS011;26845;50.190;19.178;2022-09-16T20:16:26;8.63;;;4.90;;
41101;SDS011;26845;50.190;19.178;2022-09-16T20:18:54;8.68;;;5.00;;
41101;SDS011;26845;50.190;19.178;2022-09-16T20:21:22;10.70;;;5.97;;
41101;SDS011;26845;50.190;19.178;2022-09-16T20:23:50;9.75;;;5.22;;
41101;SDS011;26845;50.190;19.178;2022-09-16T20:26:18;10.55;;;5.78;;
41101;SDS011;26845;50.190;19.178;2022-09-16T20:28:53;11.73;;;6.83;;
41101;SDS011;26845;50.190;19.178;2022-09-16T20:31:18;10.18;;;6.40;;
41101;SDS011;26845;50.190;19.178;2022-09-16T20:33:50;12.43;;;7.35;;
41101;SDS011;26845;50.190;19.178;2022-09-16T20:36:17;9.63;;;6.37;;
41101;SDS011;26845;50.190;19.178;2022-09-16T20:38:47;14.43;;;7.62;;
41101;SDS011;26845;50.190;19.178;2022-09-16T20:43:47;14.78;;;7.33;;
41101;SDS011;26845;50.190;19.178;2022-09-16T20:48:48;14.33;;;7.55;;
41101;SDS011;26845;50.190;19.178;2022-09-16T20:51:17;13.55;;;8.20;;
41101;SDS011;26845;50.190;19.178;2022-09-16T20:53:51;14.23;;;7.97;;
41101;SDS011;26845;50.190;19.178;2022-09-16T20:56:20;13.85;;;8.18;;
41101;SDS011;26845;50.190;19.178;2022-09-16T20:58:47;14.05;;;8.30;;
41101;SDS011;26845;50.190;19.178;2022-09-16T21:01:15;15.05;;;7.50;;
41101;SDS011;26845;50.190;19.178;2022-09-16T21:03:48;15.93;;;7.45;;
41101;SDS011;26845;50.190;19.178;2022-09-16T21:06:18;12.25;;;7.90;;
41101;SDS011;26845;50.190;19.178;2022-09-16T21:08:44;19.75;;;9.25;;
41101;SDS011;26845;50.190;19.178;2022-09-16T21:11:11;14.45;;;8.30;;
41101;SDS011;26845;50.190;19.178;2022-09-16T21:13:40;17.37;;;8.95;;
41101;SDS011;26845;50.190;19.178;2022-09-16T21:16:13;17.57;;;9.07;;
41101;SDS011;26845;50.190;19.178;2022-09-16T21:18:40;20.60;;;10.20;;
41101;SDS011;26845;50.190;19.178;2022-09-16T21:21:09;24.57;;;11.75;;
41101;SDS011;26845;50.190;19.178;2022-09-16T21:23:41;25.32;;;12.37;;
41101;SDS011;26845;50.190;19.178;2022-09-16T21:26:14;28.67;;;12.70;;
41101;SDS011;26845;50.190;19.178;2022-09-16T21:28:44;12.47;;;7.33;;
41101;SDS011;26845;50.190;19.178;2022-09-16T21:31:14;17.25;;;6.97;;
41101;SDS011;26845;50.190;19.178;2022-09-16T21:33:41;13.93;;;7.62;;
41101;SDS011;26845;50.190;19.178;2022-09-16T21:36:09;13.15;;;8.50;;
41101;SDS011;26845;50.190;19.178;2022-09-16T21:38:38;14.95;;;8.08;;
41101;SDS011;26845;50.190;19.178;2022-09-16T21:41:09;12.58;;;7.95;;
41101;SDS011;26845;50.190;19.178;2022-09-16T21:43:46;12.10;;;7.15;;
41101;SDS011;26845;50.190;19.178;2022-09-16T21:46:20;13.08;;;8.83;;
41101;SDS011;26845;50.190;19.178;2022-09-16T21:48:45;13.60;;;8.18;;
41101;SDS011;26845;50.190;19.178;2022-09-16T21:51:13;12.25;;;6.78;;
41101;SDS011;26845;50.190;19.178;2022-09-16T21:53:41;13.15;;;7.83;;
41101;SDS011;26845;50.190;19.178;2022-09-16T21:56:11;13.98;;;7.78;;
41101;SDS011;26845;50.190;19.178;2022-09-16T21:58:43;21.90;;;10.40;;
41101;SDS011;26845;50.190;19.178;2022-09-16T22:01:14;14.83;;;9.40;;
41101;SDS011;26845;50.190;19.178;2022-09-16T22:03:43;16.35;;;9.13;;
41101;SDS011;26845;50.190;19.178;2022-09-16T22:06:12;17.97;;;10.43;;
41101;SDS011;26845;50.190;19.178;2022-09-16T22:08:43;15.38;;;10.23;;
41101;SDS011;26845;50.190;19.178;2022-09-16T22:13:38;20.02;;;9.90;;
41101;SDS011;26845;50.190;19.178;2022-09-16T22:16:05;15.48;;;9.15;;
41101;SDS011;26845;50.190;19.178;2022-09-16T22:18:33;26.85;;;10.13;;
41101;SDS011;26845;50.190;19.178;2022-09-16T22:21:04;15.35;;;9.88;;
41101;SDS011;26845;50.190;19.178;2022-09-16T22:23:35;15.90;;;10.25;;
41101;SDS011;26845;50.190;19.178;2022-09-16T22:26:04;15.00;;;9.88;;
41101;SDS011;26845;50.190;19.178;2022-09-16T22:28:33;17.10;;;10.45;;
41101;SDS011;26845;50.190;19.178;2022-09-16T22:31:06;14.85;;;9.30;;
41101;SDS011;26845;50.190;19.178;2022-09-16T22:33:34;13.83;;;10.08;;
41101;SDS011;26845;50.190;19.178;2022-09-16T22:36:06;14.95;;;7.85;;
41101;SDS011;26845;50.190;19.178;2022-09-16T22:38:31;17.32;;;9.40;;
41101;SDS011;26845;50.190;19.178;2022-09-16T22:41:01;18.25;;;10.70;;
41101;SDS011;26845;50.190;19.178;2022-09-16T22:43:33;17.23;;;10.75;;
41101;SDS011;26845;50.190;19.178;2022-09-16T22:46:01;16.70;;;9.48;;
41101;SDS011;26845;50.190;19.178;2022-09-16T22:48:29;17.25;;;10.48;;
41101;SDS011;26845;50.190;19.178;2022-09-16T22:50:55;16.23;;;10.50;;
41101;SDS011;26845;50.190;19.178;2022-09-16T22:53:21;14.83;;;9.38;;
41101;SDS011;26845;50.190;19.178;2022-09-16T22:55:53;16.17;;;10.28;;
41101;SDS011;26845;50.190;19.178;2022-09-16T22:58:20;16.82;;;10.65;;
41101;SDS011;26845;50.190;19.178;2022-09-16T23:00:47;18.40;;;10.80;;
41101;SDS011;26845;50.190;19.178;2022-09-16T23:03:13;16.17;;;10.30;;
41101;SDS011;26845;50.190;19.178;2022-09-16T23:05:39;16.05;;;10.55;;
41101;SDS011;26845;50.190;19.178;2022-09-16T23:08:05;13.60;;;9.28;;
41101;SDS011;26845;50.190;19.178;2022-09-16T23:10:30;17.25;;;9.93;;
41101;SDS011;26845;50.190;19.178;2022-09-16T23:12:56;14.98;;;10.58;;
41101;SDS011;26845;50.190;19.178;2022-09-16T23:15:23;13.30;;;8.73;;
41101;SDS011;26845;50.190;19.178;2022-09-16T23:17:51;15.30;;;9.73;;
41101;SDS011;26845;50.190;19.178;2022-09-16T23:20:16;22.13;;;10.20;;
41101;SDS011;26845;50.190;19.178;2022-09-16T23:22:42;17.37;;;10.35;;
41101;SDS011;26845;50.190;19.178;2022-09-16T23:25:08;20.68;;;10.60;;
41101;SDS011;26845;50.190;19.178;2022-09-16T23:27:33;15.50;;;10.10;;
41101;SDS011;26845;50.190;19.178;2022-09-16T23:30:00;16.10;;;9.68;;
41101;SDS011;26845;50.190;19.178;2022-09-16T23:32:27;14.70;;;10.48;;
41101;SDS011;26845;50.190;19.178;2022-09-16T23:34:55;13.20;;;9.88;;
41101;SDS011;26845;50.190;19.178;2022-09-16T23:37:20;14.65;;;9.73;;
41101;SDS011;26845;50.190;19.178;2022-09-16T23:39:46;17.62;;;10.63;;
41101;SDS011;26845;50.190;19.178;2022-09-16T23:42:12;18.52;;;10.43;;
41101;SDS011;26845;50.190;19.178;2022-09-16T23:44:38;17.95;;;10.45;;
41101;SDS011;26845;50.190;19.178;2022-09-16T23:47:04;14.03;;;10.48;;
41101;SDS011;26845;50.190;19.178;2022-09-16T23:49:31;18.10;;;10.60;;
41101;SDS011;26845;50.190;19.178;2022-09-16T23:51:57;12.33;;;8.98;;
41101;SDS011;26845;50.190;19.178;2022-09-16T23:54:22;16.57;;;10.38;;
41101;SDS011;26845;50.190;19.178;2022-09-16T23:56:48;16.93;;;8.98;;
41101;SDS011;26845;50.190;19.178;2022-09-16T23:59:14;15.35;;;10.15;;
